Time;durP1;ratioP1;P1;durP2;ratioP2;P2;SDS_P1;SDS_P2;PMS_P1;PMS_P2;Temp;Humidity;BMP_temperature;BMP_pressure;BME280_temperature;BME280_humidity;BME280_pressure;Samples;Min_cycle;Max_cycle;Signal;HPM_P1;HPM_P2
2021/06/27 00:01:14;;;;;;;11.67;10.53;;;21.20;99.90;;;;;;4954799;28;21121;-81
2021/06/27 00:03:45;;;;;;;11.40;10.10;;;21.10;99.90;;;;;;4955323;29;20543;-79
2021/06/27 00:06:13;;;;;;;24.30;18.13;;;21.10;99.90;;;;;;4974857;28;20451;-79
2021/06/27 00:08:44;;;;;;;15.07;12.93;;;21.10;99.90;;;;;;4980231;28;20478;-79
2021/06/27 00:11:13;;;;;;;17.80;15.57;;;21.00;99.90;;;;;;4973983;28;20490;-81
2021/06/27 00:13:48;;;;;;;17.07;13.53;;;21.00;99.90;;;;;;4974332;28;20439;-80
2021/06/27 00:16:16;;;;;;;11.43;9.63;;;21.00;99.90;;;;;;4974615;28;20500;-80
2021/06/27 00:18:45;;;;;;;17.13;10.60;;;21.00;99.90;;;;;;4973793;28;20454;-80
2021/06/27 00:21:14;;;;;;;13.80;12.40;;;21.00;99.90;;;;;;4974007;28;20528;-80
2021/06/27 00:23:46;;;;;;;13.47;11.20;;;21.00;99.90;;;;;;4974107;28;20502;-81
2021/06/27 00:26:17;;;;;;;13.17;11.20;;;20.90;99.90;;;;;;4974479;28;20792;-80
2021/06/27 00:28:46;;;;;;;13.30;11.23;;;21.00;99.90;;;;;;4973906;28;20506;-82
2021/06/27 00:31:15;;;;;;;11.30;9.27;;;20.90;99.90;;;;;;4974498;28;20510;-79
2021/06/27 00:33:44;;;;;;;10.67;8.10;;;20.90;99.90;;;;;;4972725;28;20498;-80
2021/06/27 00:36:12;;;;;;;9.67;8.67;;;20.90;99.90;;;;;;4974370;28;20523;-78
2021/06/27 00:38:41;;;;;;;8.97;7.57;;;20.90;99.90;;;;;;4973677;28;20455;-80
2021/06/27 00:41:11;;;;;;;8.90;8.10;;;20.90;99.90;;;;;;4974088;28;20521;-77
2021/06/27 00:43:39;;;;;;;8.97;8.10;;;20.80;99.90;;;;;;4973537;28;20963;-80
2021/06/27 00:46:07;;;;;;;12.00;9.40;;;20.70;99.90;;;;;;4972664;28;20820;-80
2021/06/27 00:48:35;;;;;;;10.73;8.47;;;20.70;99.90;;;;;;4973494;28;20471;-80
2021/06/27 00:51:04;;;;;;;9.90;8.80;;;20.70;99.90;;;;;;4973939;28;20465;-80
2021/06/27 00:53:32;;;;;;;8.90;7.90;;;20.70;99.90;;;;;;4973468;28;20443;-80
2021/06/27 00:56:00;;;;;;;9.67;8.00;;;20.70;99.90;;;;;;4972865;28;20459;-81
2021/06/27 00:58:32;;;;;;;9.70;8.27;;;20.60;99.90;;;;;;4973208;28;20538;-80
2021/06/27 01:01:03;;;;;;;10.50;8.60;;;20.50;99.90;;;;;;4973912;28;20466;-80
2021/06/27 01:03:32;;;;;;;10.17;8.43;;;20.60;99.90;;;;;;4973827;28;20455;-78
2021/06/27 01:06:00;;;;;;;10.33;9.23;;;20.60;99.90;;;;;;4974011;28;20455;-80
2021/06/27 01:08:28;;;;;;;8.80;7.67;;;20.60;99.90;;;;;;4973115;28;20440;-78
2021/06/27 01:10:57;;;;;;;9.57;8.03;;;20.60;99.90;;;;;;4973336;28;20455;-80
2021/06/27 01:13:25;;;;;;;9.20;8.30;;;20.60;99.90;;;;;;4972168;28;20440;-81
2021/06/27 01:15:55;;;;;;;9.10;8.20;;;20.50;99.90;;;;;;4973858;28;20462;-80
2021/06/27 01:18:31;;;;;;;8.47;7.57;;;20.60;99.90;;;;;;4971983;28;20498;-80
2021/06/27 01:21:06;;;;;;;8.63;7.10;;;20.50;99.90;;;;;;4971261;28;20478;-78
2021/06/27 01:23:34;;;;;;;8.87;7.67;;;20.50;99.90;;;;;;4972983;28;20520;-80
2021/06/27 01:26:02;;;;;;;7.97;7.03;;;20.50;99.90;;;;;;4973495;28;20451;-80
2021/06/27 01:28:30;;;;;;;8.50;7.70;;;20.40;99.90;;;;;;4972738;28;20448;-80
2021/06/27 01:30:58;;;;;;;8.57;7.60;;;20.40;99.90;;;;;;4973568;28;20533;-79
2021/06/27 01:33:26;;;;;;;7.47;6.70;;;20.40;99.90;;;;;;4973428;28;21031;-80
2021/06/27 01:35:55;;;;;;;8.33;7.50;;;20.40;99.90;;;;;;4976656;28;20474;-79
2021/06/27 01:38:24;;;;;;;8.63;7.73;;;20.40;99.90;;;;;;4976496;28;20486;-78
2021/06/27 01:40:52;;;;;;;10.33;8.20;;;20.40;99.90;;;;;;4976053;28;20951;-77
2021/06/27 01:43:23;;;;;;;8.37;7.57;;;20.40;99.90;;;;;;4977413;28;20502;-79
2021/06/27 01:45:53;;;;;;;10.90;8.00;;;20.40;99.90;;;;;;4977104;28;20506;-79
2021/06/27 01:48:22;;;;;;;7.10;6.40;;;20.40;99.90;;;;;;4976996;28;20454;-79
2021/06/27 01:50:52;;;;;;;8.20;7.17;;;20.30;99.90;;;;;;4976648;28;20483;-80
2021/06/27 01:53:23;;;;;;;7.27;6.57;;;20.30;99.90;;;;;;4976962;28;20452;-80
2021/06/27 01:56:04;;;;;;;8.73;7.03;;;20.20;99.90;;;;;;4976464;28;20459;-78
2021/06/27 01:58:37;;;;;;;12.20;7.60;;;20.20;99.90;;;;;;4975654;28;20459;-76
2021/06/27 02:01:08;;;;;;;8.17;6.93;;;20.30;99.90;;;;;;4976413;28;20459;-79
2021/06/27 02:03:37;;;;;;;9.63;7.30;;;20.20;99.90;;;;;;4977119;28;20521;-77
2021/06/27 02:06:06;;;;;;;7.70;7.00;;;20.30;99.90;;;;;;4975805;28;20518;-79
2021/06/27 02:08:35;;;;;;;7.83;7.03;;;20.20;99.90;;;;;;4976561;28;20526;-76
2021/06/27 02:11:07;;;;;;;9.67;7.97;;;20.20;99.90;;;;;;4971145;28;20893;-78
2021/06/27 02:13:36;;;;;;;6.97;6.23;;;20.20;99.90;;;;;;4976738;28;20498;-79
2021/06/27 02:16:05;;;;;;;7.63;6.83;;;20.00;99.90;;;;;;4975663;28;20483;-78
2021/06/27 02:18:35;;;;;;;7.17;6.40;;;20.10;99.90;;;;;;4975867;28;20455;-79
2021/06/27 02:21:08;;;;;;;7.70;6.90;;;20.10;99.90;;;;;;4974551;28;20463;-78
2021/06/27 02:23:37;;;;;;;7.80;7.00;;;20.10;99.90;;;;;;4976676;28;20459;-79
2021/06/27 02:26:06;;;;;;;8.50;6.80;;;20.10;99.90;;;;;;4977899;28;20517;-78
2021/06/27 02:28:35;;;;;;;8.37;7.43;;;20.10;99.90;;;;;;4979279;28;20498;-79
2021/06/27 02:31:05;;;;;;;7.30;6.70;;;20.10;99.90;;;;;;4978593;28;20479;-79
2021/06/27 02:33:34;;;;;;;7.70;7.00;;;20.00;99.90;;;;;;4977973;28;20501;-79
2021/06/27 02:36:03;;;;;;;10.13;7.80;;;20.00;99.90;;;;;;4977588;28;20488;-78
2021/06/27 02:38:31;;;;;;;9.17;6.70;;;20.00;99.90;;;;;;4978885;28;20504;-79
2021/06/27 02:41:00;;;;;;;7.63;6.90;;;19.90;99.90;;;;;;4978751;28;20435;-78
2021/06/27 02:43:29;;;;;;;6.77;5.87;;;19.80;99.90;;;;;;4977885;28;20443;-78
2021/06/27 02:45:57;;;;;;;7.80;7.10;;;19.80;99.90;;;;;;4978198;28;20522;-79
2021/06/27 02:48:25;;;;;;;8.30;7.23;;;19.90;99.90;;;;;;4977011;28;20843;-79
2021/06/27 02:50:54;;;;;;;8.50;7.03;;;19.90;99.90;;;;;;4978246;28;20467;-79
2021/06/27 02:53:22;;;;;;;11.27;8.73;;;20.00;99.90;;;;;;4978606;28;20446;-79
2021/06/27 02:56:06;;;;;;;10.23;7.50;;;19.90;99.90;;;;;;4977878;28;20462;-79
2021/06/27 02:58:38;;;;;;;8.10;6.83;;;19.80;99.90;;;;;;4975963;28;20863;-79
2021/06/27 03:01:06;;;;;;;7.90;7.17;;;19.70;99.90;;;;;;4977983;28;20470;-79
2021/06/27 03:03:35;;;;;;;9.30;8.40;;;19.80;99.90;;;;;;4977901;28;21030;-79
2021/06/27 03:06:03;;;;;;;8.47;6.77;;;19.80;99.90;;;;;;4977152;28;20458;-79
2021/06/27 03:08:32;;;;;;;11.30;8.60;;;19.80;99.90;;;;;;4977151;28;20447;-78
2021/06/27 03:11:00;;;;;;;8.53;7.63;;;19.80;99.90;;;;;;4978372;28;20475;-79
2021/06/27 03:13:29;;;;;;;7.23;6.63;;;19.90;99.90;;;;;;4986907;28;20457;-79
2021/06/27 03:15:58;;;;;;;9.80;7.10;;;19.90;99.90;;;;;;4998323;28;20469;-79
2021/06/27 03:18:26;;;;;;;7.80;7.00;;;19.80;99.90;;;;;;4977055;28;20517;-79
2021/06/27 03:20:54;;;;;;;8.77;7.10;;;19.80;99.90;;;;;;4978077;28;20466;-79
2021/06/27 03:23:23;;;;;;;7.87;6.93;;;19.80;99.90;;;;;;4975253;28;20451;-80
2021/06/27 03:25:51;;;;;;;8.70;7.33;;;19.80;99.90;;;;;;4976972;28;20443;-79
2021/06/27 03:28:20;;;;;;;7.23;6.50;;;19.80;99.90;;;;;;4976953;28;20453;-79
2021/06/27 03:30:49;;;;;;;8.70;6.73;;;19.80;99.90;;;;;;4976484;28;20482;-79
2021/06/27 03:33:18;;;;;;;7.10;6.40;;;19.80;99.90;;;;;;4974709;28;20466;-78
2021/06/27 03:35:46;;;;;;;7.33;6.63;;;19.80;99.90;;;;;;4976427;28;20850;-79
2021/06/27 03:38:19;;;;;;;12.50;7.90;;;19.70;99.90;;;;;;4974851;28;20474;-78
2021/06/27 03:40:47;;;;;;;7.33;6.63;;;19.60;99.90;;;;;;4978441;28;20455;-79
2021/06/27 03:43:15;;;;;;;9.13;7.80;;;19.70;99.90;;;;;;4976873;28;20435;-79
2021/06/27 03:45:44;;;;;;;8.63;7.67;;;19.70;99.90;;;;;;4977948;28;20454;-79
2021/06/27 03:48:12;;;;;;;6.90;6.30;;;19.70;99.90;;;;;;4976812;28;20454;-79
2021/06/27 03:50:41;;;;;;;6.53;5.90;;;19.70;99.90;;;;;;4977105;28;20473;-78
2021/06/27 03:53:09;;;;;;;8.70;6.70;;;19.80;99.90;;;;;;4982964;28;20463;-79
2021/06/27 03:55:38;;;;;;;10.53;7.13;;;19.60;1.00;;;;;;4977110;28;20455;-79
2021/06/27 03:58:06;;;;;;;10.33;7.17;;;19.60;1.00;;;;;;4975640;28;20450;-77
2021/06/27 04:00:34;;;;;;;6.83;6.03;;;19.60;1.00;;;;;;4976826;28;20454;-79
2021/06/27 04:03:02;;;;;;;7.10;6.50;;;19.70;1.00;;;;;;4976753;28;20567;-79
2021/06/27 04:05:30;;;;;;;7.33;6.63;;;19.70;1.00;;;;;;4975584;28;20455;-80
2021/06/27 04:08:00;;;;;;;7.07;6.40;;;19.60;1.00;;;;;;4977007;28;20951;-79
2021/06/27 04:10:28;;;;;;;7.53;6.73;;;19.70;1.00;;;;;;4957173;28;20530;-79
2021/06/27 04:12:57;;;;;;;7.80;6.70;;;19.70;1.00;;;;;;4974438;28;20482;-80
2021/06/27 04:15:25;;;;;;;7.43;6.73;;;19.70;1.00;;;;;;4975933;28;20439;-78
2021/06/27 04:17:53;;;;;;;10.60;6.77;;;19.80;1.00;;;;;;4976149;28;20486;-78
2021/06/27 04:20:21;;;;;;;6.93;6.33;;;19.80;1.00;;;;;;4975384;28;20457;-80
2021/06/27 04:22:49;;;;;;;8.20;7.37;;;19.80;1.00;;;;;;4975267;28;20462;-79
2021/06/27 04:25:19;;;;;;;7.70;6.60;;;19.80;1.00;;;;;;4976269;28;20446;-80
2021/06/27 04:27:47;;;;;;;9.60;6.60;;;19.70;1.00;;;;;;4975671;28;20456;-79
2021/06/27 04:30:16;;;;;;;6.60;6.00;;;19.70;47.10;;;;;;4975448;28;20537;-79
2021/06/27 04:32:45;;;;;;;8.07;6.87;;;19.70;99.90;;;;;;4973266;28;20565;-79
2021/06/27 04:35:13;;;;;;;9.40;7.53;;;19.80;1.00;;;;;;4973256;28;20455;-79
2021/06/27 04:37:41;;;;;;;6.73;6.03;;;19.80;1.00;;;;;;4975263;28;20446;-80
2021/06/27 04:40:10;;;;;;;8.77;7.77;;;19.80;1.00;;;;;;4975517;28;20435;-79
2021/06/27 04:42:39;;;;;;;6.60;6.03;;;19.80;1.00;;;;;;4975160;28;20467;-80
2021/06/27 04:45:09;;;;;;;8.30;7.47;;;19.80;1.00;;;;;;4975167;28;20447;-79
2021/06/27 04:47:37;;;;;;;9.10;7.10;;;19.80;1.00;;;;;;4974805;28;20450;-80
2021/06/27 04:50:06;;;;;;;9.83;7.60;;;19.80;1.00;;;;;;4974826;28;20497;-77
2021/06/27 04:52:35;;;;;;;7.63;6.63;;;19.90;1.00;;;;;;4974814;28;20478;-79
2021/06/27 04:55:05;;;;;;;7.47;6.77;;;19.80;74.40;;;;;;4974249;28;20517;-79
2021/06/27 04:57:33;;;;;;;9.37;7.60;;;19.80;99.90;;;;;;4974071;28;20446;-79
2021/06/27 05:00:07;;;;;;;7.73;7.03;;;19.80;73.30;;;;;;4974511;28;20783;-80
2021/06/27 05:02:35;;;;;;;7.70;6.53;;;19.70;99.90;;;;;;4974782;28;21045;-79
2021/06/27 05:05:04;;;;;;;9.00;8.17;;;19.70;99.90;;;;;;4974833;28;20451;-80
2021/06/27 05:07:32;;;;;;;9.77;7.13;;;19.70;1.00;;;;;;4974550;28;21264;-79
2021/06/27 05:10:01;;;;;;;7.13;6.53;;;19.70;98.90;;;;;;4974018;28;20454;-80
2021/06/27 05:12:29;;;;;;;8.20;6.93;;;19.80;99.90;;;;;;4973733;28;20483;-79
2021/06/27 05:14:57;;;;;;;8.00;6.60;;;19.80;99.90;;;;;;4973814;28;20454;-80
2021/06/27 05:17:27;;;;;;;8.00;7.30;;;19.80;99.90;;;;;;4974654;28;20463;-79
2021/06/27 05:19:55;;;;;;;8.00;7.20;;;19.90;99.90;;;;;;4973992;28;20944;-79
2021/06/27 05:22:24;;;;;;;8.57;7.80;;;19.90;99.90;;;;;;4974069;28;20467;-80
2021/06/27 05:24:52;;;;;;;11.70;8.53;;;19.90;99.90;;;;;;4972612;28;20998;-79
2021/06/27 05:27:20;;;;;;;9.27;7.63;;;19.90;99.90;;;;;;4975230;28;20447;-80
2021/06/27 05:29:48;;;;;;;10.60;7.60;;;19.80;7.00;;;;;;4973797;28;20866;-79
2021/06/27 05:32:17;;;;;;;8.53;7.20;;;19.80;69.50;;;;;;4974874;28;20486;-80
2021/06/27 05:34:46;;;;;;;8.57;7.63;;;19.80;99.90;;;;;;4973238;28;20455;-79
2021/06/27 05:37:14;;;;;;;9.73;8.73;;;19.70;99.90;;;;;;4974910;28;20509;-80
2021/06/27 05:39:42;;;;;;;8.33;7.53;;;19.70;99.90;;;;;;4971904;28;20518;-79
2021/06/27 05:42:11;;;;;;;8.80;8.00;;;19.80;1.00;;;;;;4974544;28;20529;-80
2021/06/27 05:44:39;;;;;;;8.90;7.10;;;19.90;1.00;;;;;;4987770;28;20482;-79
2021/06/27 05:47:07;;;;;;;15.60;8.67;;;20.00;45.60;;;;;;4994039;28;20489;-77
2021/06/27 05:49:35;;;;;;;9.13;8.23;;;20.00;99.90;;;;;;4992629;28;20969;-80
2021/06/27 05:52:05;;;;;;;8.43;7.43;;;20.00;70.10;;;;;;4993220;28;20540;-80
2021/06/27 05:54:33;;;;;;;10.30;7.77;;;20.00;99.90;;;;;;4993321;28;20450;-79
2021/06/27 05:57:02;;;;;;;8.17;6.90;;;20.10;99.90;;;;;;4993711;28;20446;-79
2021/06/27 05:59:30;;;;;;;8.40;7.13;;;20.10;37.30;;;;;;4993991;28;20470;-79
2021/06/27 06:01:58;;;;;;;7.40;6.70;;;20.20;1.00;;;;;;4997473;28;20466;-80
2021/06/27 06:04:26;;;;;;;8.00;7.27;;;20.20;1.00;;;;;;4996976;28;20792;-79
2021/06/27 06:06:54;;;;;;;8.93;6.73;;;20.20;1.90;;;;;;4997641;28;20442;-79
2021/06/27 06:09:24;;;;;;;7.67;6.87;;;20.30;24.30;;;;;;4996888;28;20485;-80
2021/06/27 06:11:53;;;;;;;7.70;7.00;;;20.30;99.90;;;;;;4997824;28;20470;-80
2021/06/27 06:14:21;;;;;;;7.10;6.37;;;20.30;99.90;;;;;;4996817;28;20508;-80
2021/06/27 06:16:49;;;;;;;6.23;5.63;;;20.40;98.40;;;;;;4996878;28;20526;-79
2021/06/27 06:19:20;;;;;;;6.73;6.13;;;20.40;33.10;;;;;;4996398;28;20504;-80
2021/06/27 06:21:48;;;;;;;7.10;6.40;;;20.40;22.20;;;;;;4994802;28;20477;-79
2021/06/27 06:24:18;;;;;;;8.53;7.20;;;20.50;94.00;;;;;;4996673;28;20442;-80
2021/06/27 06:26:48;;;;;;;6.87;6.20;;;20.50;99.90;;;;;;4980780;28;20447;-80
2021/06/27 06:29:16;;;;;;;8.47;7.00;;;20.60;99.90;;;;;;4975359;28;20465;-79
2021/06/27 06:31:44;;;;;;;6.13;4.13;;;20.60;1.00;;;;;;4977246;28;20474;-80
2021/06/27 06:34:13;;;;;;;6.40;4.73;;;20.70;1.00;;;;;;4975292;28;20463;-79
2021/06/27 06:36:44;;;;;;;4.20;3.80;;;20.70;1.00;;;;;;4977639;28;20493;-79
2021/06/27 06:39:12;;;;;;;3.00;2.70;;;20.80;1.00;;;;;;4977252;28;20451;-80
2021/06/27 06:41:40;;;;;;;2.67;2.47;;;20.90;99.90;;;;;;4976915;28;20495;-79
2021/06/27 06:44:09;;;;;;;3.03;2.70;;;20.90;99.90;;;;;;4976641;28;20443;-80
2021/06/27 06:46:38;;;;;;;3.30;2.40;;;20.90;99.90;;;;;;4975268;28;20458;-80
2021/06/27 06:49:06;;;;;;;2.37;2.27;;;20.90;99.90;;;;;;4974847;28;20443;-80
2021/06/27 06:51:34;;;;;;;3.60;2.57;;;21.00;99.90;;;;;;4976696;28;20877;-80
2021/06/27 06:54:02;;;;;;;3.30;2.77;;;21.10;99.90;;;;;;4975227;28;20443;-80
2021/06/27 06:56:30;;;;;;;2.80;2.60;;;21.10;99.90;;;;;;4976637;28;20849;-79
2021/06/27 06:58:58;;;;;;;3.60;3.30;;;21.20;99.90;;;;;;4976688;28;20455;-81
2021/06/27 07:01:28;;;;;;;2.77;2.57;;;21.20;28.20;;;;;;4976684;28;20479;-80
2021/06/27 07:03:56;;;;;;;3.50;3.10;;;21.20;67.70;;;;;;4975312;28;20448;-80
2021/06/27 07:06:29;;;;;;;3.17;2.97;;;21.30;68.40;;;;;;4976160;28;20456;-81
2021/06/27 07:09:04;;;;;;;3.47;3.17;;;21.40;50.70;;;;;;4974775;28;20463;-80
2021/06/27 07:11:32;;;;;;;4.57;3.00;;;21.50;1.00;;;;;;4974563;28;20494;-79
2021/06/27 07:14:01;;;;;;;3.37;3.17;;;21.60;1.00;;;;;;4975639;28;20477;-81
2021/06/27 07:16:31;;;;;;;2.83;2.63;;;21.60;1.00;;;;;;4976004;28;20502;-79
2021/06/27 07:18:59;;;;;;;3.30;3.10;;;21.70;1.00;;;;;;4976674;28;20462;-79
2021/06/27 07:21:29;;;;;;;3.83;3.47;;;21.70;1.00;;;;;;4974491;28;21116;-80
2021/06/27 07:23:57;;;;;;;5.67;2.80;;;21.80;1.00;;;;;;4976471;28;20526;-80
2021/06/27 07:26:30;;;;;;;3.47;3.17;;;21.80;1.00;;;;;;4974318;28;20451;-80
2021/06/27 07:29:04;;;;;;;2.87;2.67;;;21.90;1.00;;;;;;4976204;28;20497;-79
2021/06/27 07:31:34;;;;;;;2.53;2.33;;;21.90;1.00;;;;;;4975370;28;20630;-77
2021/06/27 07:34:02;;;;;;;2.90;2.70;;;22.00;1.00;;;;;;4976638;28;20472;-78
2021/06/27 07:36:30;;;;;;;3.30;3.00;;;22.00;1.00;;;;;;4976023;28;20453;-79
2021/06/27 07:38:58;;;;;;;4.30;2.90;;;22.10;1.00;;;;;;4975752;28;20445;-80
2021/06/27 07:41:26;;;;;;;3.37;3.07;;;22.20;1.00;;;;;;4975681;28;20536;-80
2021/06/27 07:43:55;;;;;;;3.70;3.40;;;22.20;1.00;;;;;;4974672;28;20452;-79
2021/06/27 07:46:23;;;;;;;3.00;2.80;;;22.20;1.00;;;;;;4975394;28;20516;-80
2021/06/27 07:48:53;;;;;;;3.07;2.87;;;22.20;1.00;;;;;;4973716;28;20450;-82
2021/06/27 07:51:21;;;;;;;4.43;2.93;;;22.30;1.00;;;;;;4973484;28;20473;-78
2021/06/27 07:53:49;;;;;;;3.20;2.90;;;22.30;1.00;;;;;;4975111;28;20529;-80
2021/06/27 07:56:17;;;;;;;3.03;2.80;;;22.40;1.00;;;;;;4975074;28;20497;-80
2021/06/27 07:58:56;;;;;;;5.30;3.20;;;22.40;1.00;;;;;;4975168;28;20450;-79
2021/06/27 08:01:24;;;;;;;2.50;2.40;;;22.50;1.00;;;;;;4975029;28;20471;-79
2021/06/27 08:03:54;;;;;;;3.50;3.20;;;22.50;1.00;;;;;;4975037;28;20786;-80
2021/06/27 08:06:22;;;;;;;3.43;3.13;;;22.60;1.00;;;;;;4974904;28;20450;-81
2021/06/27 08:08:50;;;;;;;2.97;2.77;;;22.60;1.00;;;;;;4974563;28;20454;-80
2021/06/27 08:11:18;;;;;;;2.97;2.70;;;22.60;1.00;;;;;;4974636;28;20598;-80
2021/06/27 08:13:46;;;;;;;3.10;2.90;;;22.60;1.00;;;;;;4973408;28;21045;-81
2021/06/27 08:16:14;;;;;;;3.57;3.27;;;22.60;1.00;;;;;;4973620;28;20451;-80
2021/06/27 08:18:43;;;;;;;3.27;3.07;;;22.70;1.00;;;;;;4974537;28;20450;-81
2021/06/27 08:21:12;;;;;;;2.40;2.30;;;22.70;1.00;;;;;;4974134;28;20556;-80
2021/06/27 08:23:40;;;;;;;2.57;2.37;;;22.80;1.00;;;;;;4972612;28;20994;-81
2021/06/27 08:26:09;;;;;;;3.20;2.97;;;22.90;1.00;;;;;;4953583;28;20478;-80
2021/06/27 08:28:37;;;;;;;3.13;2.87;;;22.90;1.00;;;;;;4954866;28;20946;-80
2021/06/27 08:31:06;;;;;;;2.50;2.30;;;22.90;1.00;;;;;;4978113;28;20487;-80
2021/06/27 08:33:34;;;;;;;3.00;2.80;;;23.00;1.00;;;;;;4987850;28;21182;-79
2021/06/27 08:36:03;;;;;;;3.50;3.10;;;23.00;1.00;;;;;;4973252;28;20454;-79
2021/06/27 08:38:33;;;;;;;2.97;2.77;;;23.10;1.00;;;;;;4973816;28;20805;-80
2021/06/27 08:41:01;;;;;;;3.03;2.80;;;23.10;1.00;;;;;;4972699;28;20443;-80
2021/06/27 08:43:31;;;;;;;2.90;2.70;;;23.20;1.00;;;;;;4973750;28;20442;-81
2021/06/27 08:46:05;;;;;;;3.33;3.10;;;23.30;1.00;;;;;;4974022;28;20505;-81
2021/06/27 08:48:37;;;;;;;3.23;2.93;;;23.30;1.00;;;;;;4974172;28;20504;-79
2021/06/27 08:51:06;;;;;;;3.23;2.37;;;23.40;1.00;;;;;;4974119;28;20471;-80
2021/06/27 08:53:39;;;;;;;2.93;2.73;;;23.40;1.00;;;;;;4973448;28;20564;-80
2021/06/27 08:56:08;;;;;;;3.17;2.97;;;23.40;1.00;;;;;;4974179;28;20460;-81
2021/06/27 08:58:38;;;;;;;3.23;2.70;;;23.40;1.00;;;;;;4971796;28;20467;-80
2021/06/27 09:01:07;;;;;;;3.00;2.53;;;23.40;1.00;;;;;;4973721;28;20499;-80
2021/06/27 09:03:37;;;;;;;3.27;3.07;;;23.50;1.00;;;;;;4973252;28;20443;-80
2021/06/27 09:06:06;;;;;;;2.87;2.67;;;23.60;99.90;;;;;;4972408;28;20501;-80
2021/06/27 09:08:36;;;;;;;3.03;2.83;;;23.60;1.00;;;;;;4971519;28;20447;-79
2021/06/27 09:11:15;;;;;;;3.90;2.50;;;23.60;1.00;;;;;;4973738;28;20470;-81
2021/06/27 09:13:45;;;;;;;3.03;2.83;;;23.70;1.00;;;;;;4973186;28;20490;-80
2021/06/27 09:16:22;;;;;;;1.93;1.83;;;23.80;1.00;;;;;;4965534;28;20459;-79
2021/06/27 09:18:51;;;;;;;2.53;2.33;;;23.80;99.90;;;;;;4971398;28;20453;-80
2021/06/27 09:21:21;;;;;;;3.03;2.83;;;23.80;99.90;;;;;;4971761;28;20471;-80
2021/06/27 09:23:51;;;;;;;2.77;2.57;;;23.80;99.90;;;;;;4971779;28;20450;-79
2021/06/27 09:26:28;;;;;;;3.90;2.40;;;23.80;99.90;;;;;;4973815;28;20458;-79
2021/06/27 09:28:56;;;;;;;2.20;2.00;;;23.80;99.90;;;;;;4972736;28;20447;-79
2021/06/27 09:31:42;;;;;;;2.57;2.37;;;23.80;99.90;;;;;;4973405;28;20490;-81
2021/06/27 09:34:13;;;;;;;2.50;2.30;;;23.90;99.90;;;;;;4971487;28;20478;-80
2021/06/27 09:36:46;;;;;;;3.20;2.90;;;23.90;99.90;;;;;;4972068;28;20572;-80
2021/06/27 09:39:16;;;;;;;2.60;2.40;;;24.00;99.90;;;;;;4973073;28;20498;-80
2021/06/27 09:41:50;;;;;;;1.90;1.80;;;24.10;99.90;;;;;;4973073;28;20471;-81
2021/06/27 09:44:22;;;;;;;2.30;2.20;;;24.20;99.90;;;;;;4973073;28;20435;-80
2021/06/27 09:46:52;;;;;;;2.90;2.70;;;24.10;99.90;;;;;;4973256;28;20443;-80
2021/06/27 09:49:30;;;;;;;2.30;2.17;;;24.20;99.90;;;;;;4972126;28;20478;-80
2021/06/27 09:52:02;;;;;;;2.60;2.40;;;24.20;99.90;;;;;;4972678;28;20978;-79
2021/06/27 09:54:31;;;;;;;2.27;2.10;;;24.30;99.90;;;;;;4972024;28;20525;-80
2021/06/27 09:57:00;;;;;;;2.57;2.47;;;24.30;99.90;;;;;;4973013;28;20444;-81
2021/06/27 09:59:34;;;;;;;2.20;2.10;;;24.30;99.90;;;;;;4972845;28;20459;-80
2021/06/27 10:02:02;;;;;;;2.83;2.00;;;24.40;99.90;;;;;;4971659;28;20466;-80
2021/06/27 10:04:33;;;;;;;2.30;2.20;;;24.40;99.90;;;;;;4973190;28;20459;-79
2021/06/27 10:07:02;;;;;;;2.40;2.07;;;24.40;99.90;;;;;;4972931;28;20457;-81
2021/06/27 10:09:33;;;;;;;3.10;2.07;;;24.40;99.90;;;;;;4972890;28;20451;-80
2021/06/27 10:12:03;;;;;;;2.40;2.20;;;24.50;99.90;;;;;;4973051;28;20463;-80
2021/06/27 10:14:34;;;;;;;2.37;2.17;;;24.50;99.90;;;;;;4972427;28;20990;-77
2021/06/27 10:17:05;;;;;;;2.00;1.60;;;24.50;99.90;;;;;;4979706;28;20524;-80
2021/06/27 10:19:33;;;;;;;2.20;2.10;;;24.50;99.90;;;;;;4994084;28;20438;-79
2021/06/27 10:22:03;;;;;;;2.30;2.20;;;24.50;99.90;;;;;;4994158;28;20538;-78
2021/06/27 10:24:33;;;;;;;1.90;1.57;;;24.50;99.90;;;;;;4980709;28;20459;-78
2021/06/27 10:27:05;;;;;;;2.03;1.70;;;24.50;99.90;;;;;;4974682;28;20443;-79
2021/06/27 10:29:36;;;;;;;1.70;1.60;;;24.60;99.90;;;;;;4972909;28;20502;-78
2021/06/27 10:32:05;;;;;;;2.60;2.27;;;24.60;99.90;;;;;;4974299;28;20490;-79
2021/06/27 10:34:34;;;;;;;2.00;1.90;;;24.70;99.90;;;;;;4973170;28;20498;-80
2021/06/27 10:37:09;;;;;;;2.00;1.90;;;24.80;99.90;;;;;;4970344;28;20466;-80
2021/06/27 10:39:39;;;;;;;1.80;1.70;;;24.70;99.90;;;;;;4974099;28;20453;-80
2021/06/27 10:42:08;;;;;;;1.63;1.53;;;24.80;99.90;;;;;;4974451;28;20471;-79
2021/06/27 10:44:59;;;;;;;1.80;1.70;;;24.90;99.90;;;;;;4974367;28;21167;-79
2021/06/27 10:47:31;;;;;;;1.80;1.70;;;24.90;99.90;;;;;;4977507;28;20447;-80
2021/06/27 10:50:03;;;;;;;1.80;1.70;;;25.00;99.90;;;;;;4975575;28;20443;-79
2021/06/27 10:53:01;;;;;;;1.90;1.70;;;25.00;99.90;;;;;;4975828;28;20466;-78
2021/06/27 10:55:41;;;;;;;2.10;1.97;;;25.10;99.90;;;;;;4976662;28;20970;-80
2021/06/27 10:58:11;;;;;;;2.57;2.37;;;25.10;99.90;;;;;;4977519;28;20443;-78
2021/06/27 11:01:08;;;;;;;2.67;2.47;;;25.10;99.90;;;;;;4976690;28;20447;-78
2021/06/27 11:03:42;;;;;;;1.60;1.50;;;25.10;99.90;;;;;;4978027;28;20486;-78
2021/06/27 11:06:38;;;;;;;1.87;1.73;;;25.10;99.90;;;;;;4976549;28;20440;-80
2021/06/27 11:09:25;;;;;;;1.83;1.73;;;25.10;99.90;;;;;;4976181;28;20583;-80
2021/06/27 11:11:58;;;;;;;1.93;1.83;;;25.10;99.90;;;;;;4975554;28;20465;-80
2021/06/27 11:14:28;;;;;;;1.60;1.50;;;25.20;99.90;;;;;;4975400;28;20483;-79
2021/06/27 11:16:59;;;;;;;2.00;1.90;;;25.20;99.90;;;;;;4975467;28;20431;-80
2021/06/27 11:19:29;;;;;;;2.10;1.90;;;25.30;99.90;;;;;;4975318;28;20893;-80
2021/06/27 11:22:16;;;;;;;1.60;1.50;;;25.40;99.90;;;;;;4975500;28;20487;-80
2021/06/27 11:24:45;;;;;;;1.80;1.70;;;25.40;99.90;;;;;;4975460;28;20443;-80
2021/06/27 11:27:34;;;;;;;2.00;1.90;;;25.40;99.90;;;;;;4974342;28;20447;-80
2021/06/27 11:30:25;;;;;;;3.57;1.80;;;25.40;99.90;;;;;;4974464;28;20498;-79
2021/06/27 11:32:54;;;;;;;1.90;1.80;;;25.40;99.90;;;;;;4973838;28;20478;-80
2021/06/27 11:35:44;;;;;;;1.60;1.50;;;25.40;99.90;;;;;;4973248;28;20477;-79
2021/06/27 11:38:35;;;;;;;1.63;1.53;;;25.50;99.90;;;;;;4974812;28;20491;-77
2021/06/27 11:41:04;;;;;;;1.43;1.33;;;25.60;99.90;;;;;;4975341;28;20786;-80
2021/06/27 11:43:54;;;;;;;1.80;1.70;;;25.70;99.90;;;;;;4975173;28;20479;-78
2021/06/27 11:46:28;;;;;;;1.50;1.40;;;25.70;99.90;;;;;;4975268;28;20490;-80
2021/06/27 11:48:57;;;;;;;1.83;1.73;;;25.70;99.90;;;;;;4974384;28;20455;-78
2021/06/27 11:51:40;;;;;;;1.70;1.60;;;25.70;99.90;;;;;;4975414;28;20468;-80
2021/06/27 11:54:10;;;;;;;2.00;1.90;;;25.80;99.90;;;;;;4973282;28;20824;-79
2021/06/27 11:56:59;;;;;;;1.87;1.77;;;25.80;99.90;;;;;;4973395;28;20929;-80
2021/06/27 11:59:31;;;;;;;3.10;2.80;;;25.90;99.90;;;;;;4974249;28;20447;-80
2021/06/27 12:02:10;;;;;;;2.17;1.93;;;25.90;99.90;;;;;;4973572;28;21251;-79
2021/06/27 12:04:40;;;;;;;1.57;1.47;;;25.80;99.90;;;;;;4974678;28;20808;-79
2021/06/27 12:07:29;;;;;;;1.70;1.60;;;25.80;99.90;;;;;;4977417;28;20451;-79
2021/06/27 12:09:58;;;;;;;2.07;1.67;;;25.80;99.90;;;;;;4974918;28;20447;-78
2021/06/27 12:12:37;;;;;;;2.80;2.60;;;25.80;99.90;;;;;;4976655;28;20466;-79
2021/06/27 12:15:09;;;;;;;1.80;1.70;;;25.80;99.90;;;;;;4977080;28;20482;-80
2021/06/27 12:17:37;;;;;;;1.50;1.40;;;25.90;99.90;;;;;;4986141;28;20485;-79
2021/06/27 12:20:07;;;;;;;1.40;1.30;;;25.90;99.90;;;;;;4995834;28;20434;-78
2021/06/27 12:22:48;;;;;;;2.23;1.30;;;25.90;99.90;;;;;;4995189;28;20458;-79
2021/06/27 12:25:17;;;;;;;1.80;1.70;;;26.00;99.90;;;;;;4994464;28;20446;-79
2021/06/27 12:27:49;;;;;;;1.80;1.70;;;26.00;99.90;;;;;;4994534;28;20521;-79
2021/06/27 12:30:20;;;;;;;1.60;1.50;;;26.10;99.90;;;;;;4995102;28;20529;-79
2021/06/27 12:33:01;;;;;;;1.43;1.33;;;26.00;99.90;;;;;;4994170;28;21144;-79
2021/06/27 12:35:31;;;;;;;1.30;1.20;;;26.00;99.90;;;;;;4990078;28;20489;-79
2021/06/27 12:38:00;;;;;;;1.30;1.20;;;26.10;99.90;;;;;;4969946;28;20462;-79
2021/06/27 12:40:29;;;;;;;1.40;1.30;;;26.20;99.90;;;;;;4974904;28;20502;-78
2021/06/27 12:42:58;;;;;;;1.40;1.30;;;26.20;99.90;;;;;;4973146;28;20571;-79
2021/06/27 12:45:28;;;;;;;1.67;1.57;;;26.20;99.90;;;;;;4975565;28;20514;-78
2021/06/27 12:47:57;;;;;;;1.50;1.40;;;26.20;99.90;;;;;;4973768;28;20466;-79
2021/06/27 12:50:39;;;;;;;2.30;2.10;;;26.20;99.90;;;;;;4975677;28;20517;-79
2021/06/27 12:53:07;;;;;;;1.83;1.40;;;26.20;99.90;;;;;;4981499;28;21172;-81
2021/06/27 12:55:35;;;;;;;1.70;1.60;;;26.20;99.90;;;;;;4975461;28;20483;-79
2021/06/27 12:58:05;;;;;;;10.40;9.33;;;26.20;99.90;;;;;;4974639;28;20459;-78
2021/06/27 13:00:37;;;;;;;1.80;1.70;;;26.30;99.90;;;;;;4974977;28;20439;-79
2021/06/27 13:03:16;;;;;;;2.40;2.20;;;26.40;99.90;;;;;;4974516;28;20494;-79
2021/06/27 13:05:58;;;;;;;1.70;1.50;;;26.40;99.90;;;;;;4974866;28;20438;-79